sensor_id;sensor_type;location;lat;lon;timestamp;P1;durP1;ratioP1;P2;durP2;ratioP2
49942;SDS011;36011;53.362;58.948;2022-12-08T00:00:18;45.22;;;18.80;;
49942;SDS011;36011;53.362;58.948;2022-12-08T00:03:19;50.60;;;20.85;;
49942;SDS011;36011;53.362;58.948;2022-12-08T00:09:50;59.88;;;27.17;;
49942;SDS011;36011;53.362;58.948;2022-12-08T00:12:53;111.07;;;36.25;;
49942;SDS011;36011;53.362;58.948;2022-12-08T00:16:00;91.03;;;33.03;;
49942;SDS011;36011;53.362;58.948;2022-12-08T00:19:02;97.80;;;35.88;;
49942;SDS011;36011;53.362;58.948;2022-12-08T00:22:05;115.85;;;42.03;;
49942;SDS011;36011;53.362;58.948;2022-12-08T00:25:10;110.43;;;42.50;;
49942;SDS011;36011;53.362;58.948;2022-12-08T00:28:16;108.15;;;40.75;;
49942;SDS011;36011;53.362;58.948;2022-12-08T00:31:18;114.40;;;38.22;;
49942;SDS011;36011;53.362;58.948;2022-12-08T00:34:19;112.28;;;39.50;;
49942;SDS011;36011;53.362;58.948;2022-12-08T00:37:23;82.90;;;34.90;;
49942;SDS011;36011;53.362;58.948;2022-12-08T00:40:25;121.85;;;38.65;;
49942;SDS011;36011;53.362;58.948;2022-12-08T00:43:26;88.68;;;35.72;;
49942;SDS011;36011;53.362;58.948;2022-12-08T00:46:30;95.22;;;34.38;;
49942;SDS011;36011;53.362;58.948;2022-12-08T00:49:31;103.22;;;36.65;;
49942;SDS011;36011;53.362;58.948;2022-12-08T00:52:32;98.68;;;36.88;;
49942;SDS011;36011;53.362;58.948;2022-12-08T00:55:34;110.68;;;44.88;;
49942;SDS011;36011;53.362;58.948;2022-12-08T00:58:38;130.77;;;48.15;;
49942;SDS011;36011;53.362;58.948;2022-12-08T01:01:39;132.30;;;47.72;;
49942;SDS011;36011;53.362;58.948;2022-12-08T01:04:40;148.98;;;51.72;;
49942;SDS011;36011;53.362;58.948;2022-12-08T01:07:45;165.77;;;60.03;;
49942;SDS011;36011;53.362;58.948;2022-12-08T01:10:48;170.30;;;63.83;;
49942;SDS011;36011;53.362;58.948;2022-12-08T01:13:50;208.27;;;72.43;;
49942;SDS011;36011;53.362;58.948;2022-12-08T01:16:56;186.00;;;67.82;;
49942;SDS011;36011;53.362;58.948;2022-12-08T01:20:00;175.32;;;68.00;;
49942;SDS011;36011;53.362;58.948;2022-12-08T01:23:01;206.30;;;68.57;;
49942;SDS011;36011;53.362;58.948;2022-12-08T01:26:04;215.68;;;78.93;;
49942;SDS011;36011;53.362;58.948;2022-12-08T01:29:07;208.35;;;73.60;;
49942;SDS011;36011;53.362;58.948;2022-12-08T01:32:08;210.50;;;77.00;;
49942;SDS011;36011;53.362;58.948;2022-12-08T01:35:09;281.23;;;98.95;;
49942;SDS011;36011;53.362;58.948;2022-12-08T01:38:11;226.02;;;83.25;;
49942;SDS011;36011;53.362;58.948;2022-12-08T01:41:16;255.02;;;89.75;;
49942;SDS011;36011;53.362;58.948;2022-12-08T01:47:20;275.33;;;93.47;;
49942;SDS011;36011;53.362;58.948;2022-12-08T01:50:23;255.57;;;96.22;;
49942;SDS011;36011;53.362;58.948;2022-12-08T01:53:29;277.58;;;89.78;;
49942;SDS011;36011;53.362;58.948;2022-12-08T01:56:36;289.85;;;101.40;;
49942;SDS011;36011;53.362;58.948;2022-12-08T01:59:48;229.40;;;85.70;;
49942;SDS011;36011;53.362;58.948;2022-12-08T02:02:59;252.13;;;89.45;;
49942;SDS011;36011;53.362;58.948;2022-12-08T02:06:08;262.92;;;89.53;;
49942;SDS011;36011;53.362;58.948;2022-12-08T02:09:14;245.38;;;91.18;;
49942;SDS011;36011;53.362;58.948;2022-12-08T02:12:17;194.02;;;77.43;;
49942;SDS011;36011;53.362;58.948;2022-12-08T02:15:42;231.27;;;83.20;;
49942;SDS011;36011;53.362;58.948;2022-12-08T02:22:17;210.80;;;77.63;;
49942;SDS011;36011;53.362;58.948;2022-12-08T02:35:55;191.30;;;70.60;;
49942;SDS011;36011;53.362;58.948;2022-12-08T02:39:09;215.77;;;101.28;;
49942;SDS011;36011;53.362;58.948;2022-12-08T02:45:49;179.13;;;68.85;;
49942;SDS011;36011;53.362;58.948;2022-12-08T02:48:57;225.35;;;78.13;;
49942;SDS011;36011;53.362;58.948;2022-12-08T02:55:12;224.18;;;83.75;;
49942;SDS011;36011;53.362;58.948;2022-12-08T03:05:01;190.97;;;67.33;;
49942;SDS011;36011;53.362;58.948;2022-12-08T03:08:18;179.90;;;68.45;;
49942;SDS011;36011;53.362;58.948;2022-12-08T03:11:33;193.93;;;76.82;;
49942;SDS011;36011;53.362;58.948;2022-12-08T03:14:44;207.98;;;75.68;;
49942;SDS011;36011;53.362;58.948;2022-12-08T03:17:50;216.25;;;77.72;;
49942;SDS011;36011;53.362;58.948;2022-12-08T03:20:54;247.10;;;82.35;;
49942;SDS011;36011;53.362;58.948;2022-12-08T03:23:56;210.63;;;72.78;;
49942;SDS011;36011;53.362;58.948;2022-12-08T03:26:59;215.60;;;78.28;;
49942;SDS011;36011;53.362;58.948;2022-12-08T03:30:04;198.05;;;77.07;;
49942;SDS011;36011;53.362;58.948;2022-12-08T03:33:08;195.98;;;73.63;;
49942;SDS011;36011;53.362;58.948;2022-12-08T03:36:18;194.75;;;68.88;;
49942;SDS011;36011;53.362;58.948;2022-12-08T03:39:20;201.35;;;72.80;;
49942;SDS011;36011;53.362;58.948;2022-12-08T03:42:24;172.63;;;66.07;;
49942;SDS011;36011;53.362;58.948;2022-12-08T03:45:30;169.27;;;64.85;;
49942;SDS011;36011;53.362;58.948;2022-12-08T03:48:31;152.65;;;57.10;;
49942;SDS011;36011;53.362;58.948;2022-12-08T03:51:38;158.85;;;61.45;;
49942;SDS011;36011;53.362;58.948;2022-12-08T03:54:42;158.30;;;56.60;;
49942;SDS011;36011;53.362;58.948;2022-12-08T03:57:45;168.57;;;63.10;;
49942;SDS011;36011;53.362;58.948;2022-12-08T04:00:47;185.32;;;66.15;;
49942;SDS011;36011;53.362;58.948;2022-12-08T04:03:51;140.13;;;51.88;;
49942;SDS011;36011;53.362;58.948;2022-12-08T04:06:55;151.07;;;56.17;;
49942;SDS011;36011;53.362;58.948;2022-12-08T04:09:58;177.82;;;62.78;;
49942;SDS011;36011;53.362;58.948;2022-12-08T04:13:06;175.40;;;63.67;;
49942;SDS011;36011;53.362;58.948;2022-12-08T04:16:22;170.00;;;61.28;;
49942;SDS011;36011;53.362;58.948;2022-12-08T04:19:24;154.20;;;60.03;;
49942;SDS011;36011;53.362;58.948;2022-12-08T04:22:30;164.70;;;61.53;;
49942;SDS011;36011;53.362;58.948;2022-12-08T04:25:31;169.02;;;60.53;;
49942;SDS011;36011;53.362;58.948;2022-12-08T04:28:35;166.40;;;61.72;;
49942;SDS011;36011;53.362;58.948;2022-12-08T04:31:37;169.82;;;64.65;;
49942;SDS011;36011;53.362;58.948;2022-12-08T04:34:41;204.27;;;71.07;;
49942;SDS011;36011;53.362;58.948;2022-12-08T04:37:47;239.68;;;89.32;;
49942;SDS011;36011;53.362;58.948;2022-12-08T04:40:51;184.27;;;72.82;;
49942;SDS011;36011;53.362;58.948;2022-12-08T04:43:53;220.68;;;81.30;;
49942;SDS011;36011;53.362;58.948;2022-12-08T04:46:54;225.13;;;76.38;;
49942;SDS011;36011;53.362;58.948;2022-12-08T04:49:55;197.35;;;93.22;;
49942;SDS011;36011;53.362;58.948;2022-12-08T04:53:02;170.80;;;60.45;;
49942;SDS011;36011;53.362;58.948;2022-12-08T04:56:03;163.02;;;60.92;;
49942;SDS011;36011;53.362;58.948;2022-12-08T04:59:07;163.40;;;57.42;;
49942;SDS011;36011;53.362;58.948;2022-12-08T05:02:09;154.15;;;61.47;;
49942;SDS011;36011;53.362;58.948;2022-12-08T05:05:13;165.52;;;62.67;;
49942;SDS011;36011;53.362;58.948;2022-12-08T05:08:16;159.18;;;59.80;;
49942;SDS011;36011;53.362;58.948;2022-12-08T05:11:23;163.60;;;60.35;;
49942;SDS011;36011;53.362;58.948;2022-12-08T05:14:25;155.38;;;60.45;;
49942;SDS011;36011;53.362;58.948;2022-12-08T05:17:29;154.40;;;59.90;;
49942;SDS011;36011;53.362;58.948;2022-12-08T05:20:33;154.02;;;59.25;;
49942;SDS011;36011;53.362;58.948;2022-12-08T05:23:39;156.50;;;60.03;;
49942;SDS011;36011;53.362;58.948;2022-12-08T05:26:43;159.50;;;56.80;;
49942;SDS011;36011;53.362;58.948;2022-12-08T05:29:47;152.13;;;52.38;;
49942;SDS011;36011;53.362;58.948;2022-12-08T05:32:52;164.85;;;61.17;;
49942;SDS011;36011;53.362;58.948;2022-12-08T05:35:55;197.60;;;71.93;;
49942;SDS011;36011;53.362;58.948;2022-12-08T05:38:56;204.02;;;73.60;;
49942;SDS011;36011;53.362;58.948;2022-12-08T05:41:59;181.55;;;65.45;;
49942;SDS011;36011;53.362;58.948;2022-12-08T05:45:00;166.88;;;59.78;;
49942;SDS011;36011;53.362;58.948;2022-12-08T05:48:10;321.98;;;114.97;;
49942;SDS011;36011;53.362;58.948;2022-12-08T05:54:19;197.75;;;65.80;;
49942;SDS011;36011;53.362;58.948;2022-12-08T05:57:28;181.88;;;62.13;;
49942;SDS011;36011;53.362;58.948;2022-12-08T06:00:34;184.88;;;66.30;;
49942;SDS011;36011;53.362;58.948;2022-12-08T06:03:35;171.15;;;64.85;;
49942;SDS011;36011;53.362;58.948;2022-12-08T06:06:40;193.98;;;61.50;;
49942;SDS011;36011;53.362;58.948;2022-12-08T06:09:44;169.50;;;59.85;;
49942;SDS011;36011;53.362;58.948;2022-12-08T06:12:45;169.30;;;60.67;;
49942;SDS011;36011;53.362;58.948;2022-12-08T06:18:54;136.18;;;49.67;;
49942;SDS011;36011;53.362;58.948;2022-12-08T06:21:58;131.30;;;50.30;;
49942;SDS011;36011;53.362;58.948;2022-12-08T06:25:00;125.05;;;44.63;;
49942;SDS011;36011;53.362;58.948;2022-12-08T06:28:04;123.63;;;43.22;;
49942;SDS011;36011;53.362;58.948;2022-12-08T06:31:07;159.00;;;50.63;;
49942;SDS011;36011;53.362;58.948;2022-12-08T06:34:13;166.30;;;56.67;;
49942;SDS011;36011;53.362;58.948;2022-12-08T06:37:15;132.48;;;54.75;;
49942;SDS011;36011;53.362;58.948;2022-12-08T06:40:18;140.60;;;56.67;;
49942;SDS011;36011;53.362;58.948;2022-12-08T06:43:20;172.52;;;64.03;;
49942;SDS011;36011;53.362;58.948;2022-12-08T06:46:24;176.45;;;68.20;;
49942;SDS011;36011;53.362;58.948;2022-12-08T06:49:30;174.68;;;66.95;;
49942;SDS011;36011;53.362;58.948;2022-12-08T06:52:31;184.98;;;70.78;;
49942;SDS011;36011;53.362;58.948;2022-12-08T06:55:41;186.20;;;67.47;;
49942;SDS011;36011;53.362;58.948;2022-12-08T06:58:47;151.55;;;59.08;;
49942;SDS011;36011;53.362;58.948;2022-12-08T07:01:51;164.15;;;63.72;;
49942;SDS011;36011;53.362;58.948;2022-12-08T07:04:54;161.40;;;63.42;;
49942;SDS011;36011;53.362;58.948;2022-12-08T07:07:59;152.40;;;59.20;;
49942;SDS011;36011;53.362;58.948;2022-12-08T07:11:06;123.32;;;47.78;;
49942;SDS011;36011;53.362;58.948;2022-12-08T07:14:13;136.93;;;52.63;;
49942;SDS011;36011;53.362;58.948;2022-12-08T07:17:15;113.82;;;46.92;;
49942;SDS011;36011;53.362;58.948;2022-12-08T07:20:20;103.63;;;44.67;;
49942;SDS011;36011;53.362;58.948;2022-12-08T07:23:25;96.78;;;40.55;;
49942;SDS011;36011;53.362;58.948;2022-12-08T07:26:27;110.82;;;52.13;;
49942;SDS011;36011;53.362;58.948;2022-12-08T07:29:36;101.50;;;47.65;;
49942;SDS011;36011;53.362;58.948;2022-12-08T07:33:01;101.38;;;46.88;;
49942;SDS011;36011;53.362;58.948;2022-12-08T07:39:06;84.75;;;41.40;;
49942;SDS011;36011;53.362;58.948;2022-12-08T07:42:07;63.83;;;33.28;;
49942;SDS011;36011;53.362;58.948;2022-12-08T07:45:11;56.70;;;29.08;;
49942;SDS011;36011;53.362;58.948;2022-12-08T07:48:12;63.03;;;34.25;;
49942;SDS011;36011;53.362;58.948;2022-12-08T07:51:19;51.80;;;28.10;;
49942;SDS011;36011;53.362;58.948;2022-12-08T07:54:21;44.83;;;23.33;;
49942;SDS011;36011;53.362;58.948;2022-12-08T07:57:25;39.65;;;21.17;;
49942;SDS011;36011;53.362;58.948;2022-12-08T08:00:27;31.30;;;16.95;;
49942;SDS011;36011;53.362;58.948;2022-12-08T08:03:28;27.02;;;13.02;;
49942;SDS011;36011;53.362;58.948;2022-12-08T08:09:34;10.15;;;6.70;;
49942;SDS011;36011;53.362;58.948;2022-12-08T08:12:35;11.75;;;5.35;;
49942;SDS011;36011;53.362;58.948;2022-12-08T08:15:38;8.07;;;5.15;;
49942;SDS011;36011;53.362;58.948;2022-12-08T08:18:41;6.55;;;4.72;;
49942;SDS011;36011;53.362;58.948;2022-12-08T08:21:45;8.98;;;4.97;;
49942;SDS011;36011;53.362;58.948;2022-12-08T08:24:52;9.10;;;5.63;;
49942;SDS011;36011;53.362;58.948;2022-12-08T08:27:54;11.45;;;7.28;;
49942;SDS011;36011;53.362;58.948;2022-12-08T08:30:58;10.77;;;6.72;;
49942;SDS011;36011;53.362;58.948;2022-12-08T08:34:02;10.93;;;6.40;;
49942;SDS011;36011;53.362;58.948;2022-12-08T08:37:08;8.60;;;6.50;;
49942;SDS011;36011;53.362;58.948;2022-12-08T08:40:16;9.02;;;6.15;;
49942;SDS011;36011;53.362;58.948;2022-12-08T08:43:21;12.13;;;7.78;;
49942;SDS011;36011;53.362;58.948;2022-12-08T08:46:33;16.45;;;10.93;;
49942;SDS011;36011;53.362;58.948;2022-12-08T08:49:36;8.50;;;5.93;;
49942;SDS011;36011;53.362;58.948;2022-12-08T08:52:43;7.18;;;4.22;;
49942;SDS011;36011;53.362;58.948;2022-12-08T08:55:45;3.65;;;2.90;;
49942;SDS011;36011;53.362;58.948;2022-12-08T08:58:50;4.25;;;3.13;;
49942;SDS011;36011;53.362;58.948;2022-12-08T09:01:55;4.40;;;2.85;;
49942;SDS011;36011;53.362;58.948;2022-12-08T09:05:00;3.28;;;2.60;;
49942;SDS011;36011;53.362;58.948;2022-12-08T09:08:09;2.22;;;2.03;;
49942;SDS011;36011;53.362;58.948;2022-12-08T09:11:16;2.97;;;1.90;;
49942;SDS011;36011;53.362;58.948;2022-12-08T09:14:21;1.25;;;1.15;;
49942;SDS011;36011;53.362;58.948;2022-12-08T09:17:23;1.55;;;1.20;;
49942;SDS011;36011;53.362;58.948;2022-12-08T09:20:25;1.02;;;0.93;;
49942;SDS011;36011;53.362;58.948;2022-12-08T09:23:27;1.25;;;1.13;;
49942;SDS011;36011;53.362;58.948;2022-12-08T09:26:29;1.58;;;1.30;;
49942;SDS011;36011;53.362;58.948;2022-12-08T09:29:35;4.00;;;2.58;;
49942;SDS011;36011;53.362;58.948;2022-12-08T09:32:42;6.55;;;4.18;;
49942;SDS011;36011;53.362;58.948;2022-12-08T09:35:49;6.93;;;4.65;;
49942;SDS011;36011;53.362;58.948;2022-12-08T09:38:59;10.82;;;6.50;;
49942;SDS011;36011;53.362;58.948;2022-12-08T09:42:03;15.48;;;8.30;;
49942;SDS011;36011;53.362;58.948;2022-12-08T09:45:13;18.88;;;10.65;;
49942;SDS011;36011;53.362;58.948;2022-12-08T09:48:28;12.93;;;8.27;;
49942;SDS011;36011;53.362;58.948;2022-12-08T09:52:10;6.60;;;4.03;;
49942;SDS011;36011;53.362;58.948;2022-12-08T09:55:23;9.25;;;5.57;;
49942;SDS011;36011;53.362;58.948;2022-12-08T10:01:59;6.57;;;4.60;;
49942;SDS011;36011;53.362;58.948;2022-12-08T10:05:03;4.40;;;2.85;;
49942;SDS011;36011;53.362;58.948;2022-12-08T10:08:17;4.28;;;2.20;;
49942;SDS011;36011;53.362;58.948;2022-12-08T10:11:28;5.50;;;3.30;;
49942;SDS011;36011;53.362;58.948;2022-12-08T10:18:23;9.15;;;4.88;;
49942;SDS011;36011;53.362;58.948;2022-12-08T10:21:33;5.22;;;3.42;;
49942;SDS011;36011;53.362;58.948;2022-12-08T10:24:43;3.67;;;2.08;;
49942;SDS011;36011;53.362;58.948;2022-12-08T10:28:06;3.90;;;2.55;;
49942;SDS011;36011;53.362;58.948;2022-12-08T10:31:16;4.75;;;3.67;;
49942;SDS011;36011;53.362;58.948;2022-12-08T10:34:22;8.40;;;4.35;;
49942;SDS011;36011;53.362;58.948;2022-12-08T10:37:31;7.13;;;3.53;;
49942;SDS011;36011;53.362;58.948;2022-12-08T10:40:40;5.05;;;3.83;;
49942;SDS011;36011;53.362;58.948;2022-12-08T10:43:54;8.23;;;4.82;;
49942;SDS011;36011;53.362;58.948;2022-12-08T10:47:09;7.07;;;3.23;;
49942;SDS011;36011;53.362;58.948;2022-12-08T10:50:19;5.03;;;2.67;;
49942;SDS011;36011;53.362;58.948;2022-12-08T10:53:28;13.77;;;5.35;;
49942;SDS011;36011;53.362;58.948;2022-12-08T10:56:35;8.13;;;4.97;;
49942;SDS011;36011;53.362;58.948;2022-12-08T10:59:54;28.40;;;12.57;;
49942;SDS011;36011;53.362;58.948;2022-12-08T11:03:18;25.38;;;10.65;;
49942;SDS011;36011;53.362;58.948;2022-12-08T11:06:34;31.25;;;13.02;;
49942;SDS011;36011;53.362;58.948;2022-12-08T11:09:40;35.08;;;13.07;;
49942;SDS011;36011;53.362;58.948;2022-12-08T11:12:50;26.13;;;11.68;;
49942;SDS011;36011;53.362;58.948;2022-12-08T11:15:58;22.73;;;9.05;;
49942;SDS011;36011;53.362;58.948;2022-12-08T11:19:05;25.08;;;12.13;;
49942;SDS011;36011;53.362;58.948;2022-12-08T11:25:28;14.13;;;6.43;;
49942;SDS011;36011;53.362;58.948;2022-12-08T11:28:30;8.43;;;4.70;;
49942;SDS011;36011;53.362;58.948;2022-12-08T11:31:35;6.70;;;3.55;;
49942;SDS011;36011;53.362;58.948;2022-12-08T11:34:50;4.57;;;2.72;;
49942;SDS011;36011;53.362;58.948;2022-12-08T11:38:09;6.45;;;4.35;;
49942;SDS011;36011;53.362;58.948;2022-12-08T11:41:25;3.08;;;2.22;;
49942;SDS011;36011;53.362;58.948;2022-12-08T11:44:51;6.82;;;3.45;;
49942;SDS011;36011;53.362;58.948;2022-12-08T11:48:15;3.63;;;2.83;;
49942;SDS011;36011;53.362;58.948;2022-12-08T11:51:45;5.00;;;2.45;;
49942;SDS011;36011;53.362;58.948;2022-12-08T11:55:07;7.45;;;3.05;;
49942;SDS011;36011;53.362;58.948;2022-12-08T11:58:38;3.15;;;2.50;;
49942;SDS011;36011;53.362;58.948;2022-12-08T12:01:47;5.05;;;2.25;;
49942;SDS011;36011;53.362;58.948;2022-12-08T12:04:53;7.03;;;3.58;;
49942;SDS011;36011;53.362;58.948;2022-12-08T12:19:36;34.90;;;15.20;;
49942;SDS011;36011;53.362;58.948;2022-12-08T12:22:44;31.02;;;12.75;;
49942;SDS011;36011;53.362;58.948;2022-12-08T12:25:55;28.92;;;13.60;;
49942;SDS011;36011;53.362;58.948;2022-12-08T12:32:14;30.33;;;14.45;;
49942;SDS011;36011;53.362;58.948;2022-12-08T12:35:26;26.15;;;13.00;;
49942;SDS011;36011;53.362;58.948;2022-12-08T12:38:36;24.75;;;12.25;;
49942;SDS011;36011;53.362;58.948;2022-12-08T12:42:03;22.02;;;10.02;;
49942;SDS011;36011;53.362;58.948;2022-12-08T12:48:23;19.00;;;9.25;;
49942;SDS011;36011;53.362;58.948;2022-12-08T12:55:22;13.27;;;6.50;;
49942;SDS011;36011;53.362;58.948;2022-12-08T12:58:20;8.35;;;5.25;;
49942;SDS011;36011;53.362;58.948;2022-12-08T13:01:35;9.52;;;5.45;;
49942;SDS011;36011;53.362;58.948;2022-12-08T13:08:02;14.85;;;6.03;;
49942;SDS011;36011;53.362;58.948;2022-12-08T13:11:18;10.55;;;4.47;;
49942;SDS011;36011;53.362;58.948;2022-12-08T13:14:31;8.33;;;4.90;;
49942;SDS011;36011;53.362;58.948;2022-12-08T13:20:41;7.38;;;4.80;;
49942;SDS011;36011;53.362;58.948;2022-12-08T13:24:33;10.40;;;5.50;;
49942;SDS011;36011;53.362;58.948;2022-12-08T13:27:31;12.38;;;5.80;;
49942;SDS011;36011;53.362;58.948;2022-12-08T13:30:42;16.02;;;5.57;;
49942;SDS011;36011;53.362;58.948;2022-12-08T13:33:48;12.80;;;5.38;;
49942;SDS011;36011;53.362;58.948;2022-12-08T13:40:13;15.15;;;5.95;;
49942;SDS011;36011;53.362;58.948;2022-12-08T13:44:21;10.13;;;5.82;;
49942;SDS011;36011;53.362;58.948;2022-12-08T13:46:56;10.75;;;5.65;;
49942;SDS011;36011;53.362;58.948;2022-12-08T13:53:28;15.77;;;6.05;;
49942;SDS011;36011;53.362;58.948;2022-12-08T13:56:40;15.65;;;6.47;;
49942;SDS011;36011;53.362;58.948;2022-12-08T13:59:45;12.68;;;6.63;;
49942;SDS011;36011;53.362;58.948;2022-12-08T14:02:51;21.63;;;7.43;;
49942;SDS011;36011;53.362;58.948;2022-12-08T14:06:01;28.92;;;9.98;;
49942;SDS011;36011;53.362;58.948;2022-12-08T14:09:09;26.15;;;10.45;;
49942;SDS011;36011;53.362;58.948;2022-12-08T14:15:22;11.77;;;5.38;;
49942;SDS011;36011;53.362;58.948;2022-12-08T14:18:30;34.70;;;12.63;;
49942;SDS011;36011;53.362;58.948;2022-12-08T14:21:36;52.42;;;17.17;;
49942;SDS011;36011;53.362;58.948;2022-12-08T14:24:38;37.90;;;13.32;;
49942;SDS011;36011;53.362;58.948;2022-12-08T14:27:40;57.60;;;16.88;;
49942;SDS011;36011;53.362;58.948;2022-12-08T14:30:47;41.85;;;13.77;;
49942;SDS011;36011;53.362;58.948;2022-12-08T14:33:54;34.30;;;13.15;;
49942;SDS011;36011;53.362;58.948;2022-12-08T14:37:00;17.90;;;7.15;;
49942;SDS011;36011;53.362;58.948;2022-12-08T14:43:31;10.40;;;5.25;;
49942;SDS011;36011;53.362;58.948;2022-12-08T14:46:37;17.70;;;7.55;;
49942;SDS011;36011;53.362;58.948;2022-12-08T14:50:00;31.05;;;11.80;;
49942;SDS011;36011;53.362;58.948;2022-12-08T14:53:24;46.03;;;16.42;;
49942;SDS011;36011;53.362;58.948;2022-12-08T14:56:32;59.22;;;17.67;;
49942;SDS011;36011;53.362;58.948;2022-12-08T14:59:38;55.15;;;17.38;;
49942;SDS011;36011;53.362;58.948;2022-12-08T15:02:43;62.25;;;20.08;;
49942;SDS011;36011;53.362;58.948;2022-12-08T15:05:49;70.60;;;21.15;;
49942;SDS011;36011;53.362;58.948;2022-12-08T15:08:53;69.70;;;22.58;;
49942;SDS011;36011;53.362;58.948;2022-12-08T15:12:03;93.97;;;27.02;;
49942;SDS011;36011;53.362;58.948;2022-12-08T15:19:00;97.38;;;32.30;;
49942;SDS011;36011;53.362;58.948;2022-12-08T15:21:41;87.63;;;28.08;;
49942;SDS011;36011;53.362;58.948;2022-12-08T15:24:46;75.80;;;24.85;;
49942;SDS011;36011;53.362;58.948;2022-12-08T15:27:47;65.22;;;24.17;;
49942;SDS011;36011;53.362;58.948;2022-12-08T15:30:56;68.82;;;25.45;;
49942;SDS011;36011;53.362;58.948;2022-12-08T15:33:58;69.38;;;21.00;;
49942;SDS011;36011;53.362;58.948;2022-12-08T15:36:59;74.30;;;22.60;;
49942;SDS011;36011;53.362;58.948;2022-12-08T15:40:04;213.25;;;63.40;;
49942;SDS011;36011;53.362;58.948;2022-12-08T15:43:09;202.60;;;52.35;;
49942;SDS011;36011;53.362;58.948;2022-12-08T15:46:16;373.55;;;109.05;;
49942;SDS011;36011;53.362;58.948;2022-12-08T15:49:22;334.67;;;99.38;;
49942;SDS011;36011;53.362;58.948;2022-12-08T15:52:29;275.95;;;87.28;;
49942;SDS011;36011;53.362;58.948;2022-12-08T15:55:33;253.40;;;78.32;;
49942;SDS011;36011;53.362;58.948;2022-12-08T15:58:37;228.63;;;70.97;;
49942;SDS011;36011;53.362;58.948;2022-12-08T16:01:39;182.02;;;57.78;;
49942;SDS011;36011;53.362;58.948;2022-12-08T16:04:46;188.27;;;55.30;;
49942;SDS011;36011;53.362;58.948;2022-12-08T16:07:52;127.65;;;39.50;;
49942;SDS011;36011;53.362;58.948;2022-12-08T16:10:55;109.55;;;34.92;;
49942;SDS011;36011;53.362;58.948;2022-12-08T16:14:15;121.35;;;37.47;;
49942;SDS011;36011;53.362;58.948;2022-12-08T16:17:19;127.05;;;41.22;;
49942;SDS011;36011;53.362;58.948;2022-12-08T16:20:21;178.68;;;49.47;;
49942;SDS011;36011;53.362;58.948;2022-12-08T16:23:23;155.27;;;46.25;;
49942;SDS011;36011;53.362;58.948;2022-12-08T16:26:24;153.13;;;44.75;;
49942;SDS011;36011;53.362;58.948;2022-12-08T16:29:31;157.00;;;46.97;;
49942;SDS011;36011;53.362;58.948;2022-12-08T16:32:35;137.82;;;42.70;;
49942;SDS011;36011;53.362;58.948;2022-12-08T16:36:04;145.88;;;42.65;;
49942;SDS011;36011;53.362;58.948;2022-12-08T16:39:08;147.10;;;48.42;;
49942;SDS011;36011;53.362;58.948;2022-12-08T16:42:18;139.82;;;42.58;;
49942;SDS011;36011;53.362;58.948;2022-12-08T16:45:42;132.20;;;44.10;;
49942;SDS011;36011;53.362;58.948;2022-12-08T16:48:46;170.23;;;51.92;;
49942;SDS011;36011;53.362;58.948;2022-12-08T16:51:55;175.45;;;55.47;;
49942;SDS011;36011;53.362;58.948;2022-12-08T16:55:01;160.65;;;51.53;;
49942;SDS011;36011;53.362;58.948;2022-12-08T16:58:03;165.82;;;48.13;;
49942;SDS011;36011;53.362;58.948;2022-12-08T17:01:08;161.77;;;47.40;;
49942;SDS011;36011;53.362;58.948;2022-12-08T17:04:16;137.90;;;45.55;;
49942;SDS011;36011;53.362;58.948;2022-12-08T17:07:21;119.90;;;40.00;;
49942;SDS011;36011;53.362;58.948;2022-12-08T17:10:28;123.93;;;40.53;;
49942;SDS011;36011;53.362;58.948;2022-12-08T17:13:38;114.00;;;37.53;;
49942;SDS011;36011;53.362;58.948;2022-12-08T17:16:46;117.38;;;38.67;;
49942;SDS011;36011;53.362;58.948;2022-12-08T17:19:50;117.25;;;38.28;;
49942;SDS011;36011;53.362;58.948;2022-12-08T17:22:55;115.32;;;39.30;;
49942;SDS011;36011;53.362;58.948;2022-12-08T17:26:00;119.80;;;40.00;;
49942;SDS011;36011;53.362;58.948;2022-12-08T17:29:05;118.80;;;40.42;;
49942;SDS011;36011;53.362;58.948;2022-12-08T17:32:11;127.05;;;43.17;;
49942;SDS011;36011;53.362;58.948;2022-12-08T17:35:20;113.35;;;39.33;;
49942;SDS011;36011;53.362;58.948;2022-12-08T17:41:23;98.55;;;34.10;;
49942;SDS011;36011;53.362;58.948;2022-12-08T17:44:24;89.70;;;29.83;;
49942;SDS011;36011;53.362;58.948;2022-12-08T17:47:27;73.60;;;29.55;;
49942;SDS011;36011;53.362;58.948;2022-12-08T17:50:28;93.72;;;31.10;;
49942;SDS011;36011;53.362;58.948;2022-12-08T17:53:35;88.05;;;29.20;;
49942;SDS011;36011;53.362;58.948;2022-12-08T17:56:39;70.00;;;24.08;;
49942;SDS011;36011;53.362;58.948;2022-12-08T17:59:46;57.70;;;21.23;;
49942;SDS011;36011;53.362;58.948;2022-12-08T18:02:50;61.78;;;23.02;;
49942;SDS011;36011;53.362;58.948;2022-12-08T18:05:53;52.70;;;19.20;;
49942;SDS011;36011;53.362;58.948;2022-12-08T18:08:55;53.90;;;22.50;;
49942;SDS011;36011;53.362;58.948;2022-12-08T18:12:00;55.22;;;19.77;;
49942;SDS011;36011;53.362;58.948;2022-12-08T18:15:04;53.10;;;21.52;;
49942;SDS011;36011;53.362;58.948;2022-12-08T18:18:09;76.78;;;24.33;;
49942;SDS011;36011;53.362;58.948;2022-12-08T18:21:20;93.43;;;31.52;;
49942;SDS011;36011;53.362;58.948;2022-12-08T18:24:24;90.90;;;36.35;;
49942;SDS011;36011;53.362;58.948;2022-12-08T18:27:28;89.38;;;32.33;;
49942;SDS011;36011;53.362;58.948;2022-12-08T18:30:31;94.53;;;36.33;;
49942;SDS011;36011;53.362;58.948;2022-12-08T18:33:43;103.47;;;33.50;;
49942;SDS011;36011;53.362;58.948;2022-12-08T18:36:50;82.78;;;31.88;;
49942;SDS011;36011;53.362;58.948;2022-12-08T18:39:57;89.47;;;33.95;;
49942;SDS011;36011;53.362;58.948;2022-12-08T18:43:11;86.90;;;27.98;;
49942;SDS011;36011;53.362;58.948;2022-12-08T18:46:16;90.15;;;33.78;;
49942;SDS011;36011;53.362;58.948;2022-12-08T18:49:21;85.47;;;31.27;;
49942;SDS011;36011;53.362;58.948;2022-12-08T18:52:26;86.20;;;31.85;;
49942;SDS011;36011;53.362;58.948;2022-12-08T18:55:28;79.13;;;32.92;;
49942;SDS011;36011;53.362;58.948;2022-12-08T18:58:32;84.45;;;32.83;;
49942;SDS011;36011;53.362;58.948;2022-12-08T19:01:39;61.72;;;26.75;;
49942;SDS011;36011;53.362;58.948;2022-12-08T19:04:45;64.65;;;24.10;;
49942;SDS011;36011;53.362;58.948;2022-12-08T19:07:52;69.88;;;25.92;;
49942;SDS011;36011;53.362;58.948;2022-12-08T19:10:56;63.78;;;23.75;;
49942;SDS011;36011;53.362;58.948;2022-12-08T19:14:00;59.97;;;24.30;;
49942;SDS011;36011;53.362;58.948;2022-12-08T19:17:07;78.25;;;26.55;;
49942;SDS011;36011;53.362;58.948;2022-12-08T19:20:14;69.00;;;26.00;;
49942;SDS011;36011;53.362;58.948;2022-12-08T19:23:18;65.07;;;26.77;;
49942;SDS011;36011;53.362;58.948;2022-12-08T19:26:19;67.47;;;30.40;;
49942;SDS011;36011;53.362;58.948;2022-12-08T19:29:26;75.93;;;30.80;;
49942;SDS011;36011;53.362;58.948;2022-12-08T19:32:31;86.55;;;27.45;;
49942;SDS011;36011;53.362;58.948;2022-12-08T19:35:36;83.00;;;30.05;;
49942;SDS011;36011;53.362;58.948;2022-12-08T19:38:42;92.13;;;32.17;;